createdAt,value
2017-10-10T00:00:59.072Z,100235.45
2017-10-10T00:02:04.833Z,100235.92
2017-10-10T00:03:11.365Z,100231.06
2017-10-10T00:04:17.141Z,100230.11
2017-10-10T00:05:22.730Z,100234.88
2017-10-10T00:06:28.510Z,100229.27
2017-10-10T00:07:34.060Z,100231.57
2017-10-10T00:08:40.603Z,100230.78
2017-10-10T00:09:47.331Z,100233.77
2017-10-10T00:10:53.181Z,100226.69
2017-10-10T00:11:59.968Z,100225.61
2017-10-10T00:13:05.735Z,100228.39
2017-10-10T00:14:12.086Z,100223.39
2017-10-10T00:15:18.616Z,100230.19
2017-10-10T00:16:24.834Z,100222.16
2017-10-10T00:17:30.859Z,100223.91
2017-10-10T00:18:37.026Z,100224.80
2017-10-10T00:19:42.846Z,100218.34
2017-10-10T00:20:49.579Z,100228.09
2017-10-10T00:21:56.432Z,100221.59
2017-10-10T00:23:02.347Z,100224.61
2017-10-10T00:24:08.318Z,100222.86
2017-10-10T00:25:14.205Z,100218.62
2017-10-10T00:26:21.085Z,100216.13
2017-10-10T00:27:27.973Z,100212.92
2017-10-10T00:28:34.165Z,100213.98
2017-10-10T00:29:40.070Z,100218.28
2017-10-10T00:30:46.118Z,100214.19
2017-10-10T00:31:52.106Z,100208.42
2017-10-10T00:32:58.696Z,100211.62
2017-10-10T00:34:05.226Z,100217.02
2017-10-10T00:35:12.505Z,100212.25
2017-10-10T00:36:18.308Z,100216.06
2017-10-10T00:37:24.085Z,100203.09
2017-10-10T00:38:29.869Z,100210.64
2017-10-10T00:39:36.405Z,100211.54
2017-10-10T00:40:42.188Z,100209.97
2017-10-10T00:41:47.987Z,100215.78
2017-10-10T00:42:53.787Z,100206.20
2017-10-10T00:43:59.579Z,100208.48
2017-10-10T00:45:05.352Z,100204.47
2017-10-10T00:46:11.117Z,100213.56
2017-10-10T00:47:16.884Z,100207.78
2017-10-10T00:48:22.467Z,100209.33
2017-10-10T00:49:28.263Z,100210.33
2017-10-10T00:50:34.020Z,100204.61
2017-10-10T00:51:39.787Z,100211.27
2017-10-10T00:52:45.558Z,100210.56
2017-10-10T00:53:51.407Z,100209.23
2017-10-10T00:54:57.213Z,100207.64
2017-10-10T00:56:03.113Z,100202.86
2017-10-10T00:57:08.173Z,100205.70
2017-10-10T00:58:14.044Z,100203.71
2017-10-10T00:59:19.138Z,100204.23
2017-10-10T01:00:24.037Z,100200.03
2017-10-10T01:01:29.813Z,100201.27
2017-10-10T01:02:36.362Z,100200.36
2017-10-10T01:03:42.695Z,100198.77
2017-10-10T01:04:48.460Z,100199.55
2017-10-10T01:05:54.264Z,100198.77
2017-10-10T01:07:00.098Z,100195.73
2017-10-10T01:08:05.860Z,100194.66
2017-10-10T01:09:11.520Z,100195.89
2017-10-10T01:10:17.402Z,100200.09
2017-10-10T01:11:24.113Z,100199.58
2017-10-10T01:12:29.868Z,100196.52
2017-10-10T01:13:36.400Z,100195.09
2017-10-10T01:14:42.317Z,100193.15
2017-10-10T01:15:48.079Z,100196.21
2017-10-10T01:16:53.872Z,100191.07
2017-10-10T01:18:00.470Z,100191.18
2017-10-10T01:19:05.889Z,100188.63
2017-10-10T01:20:11.328Z,100192.39
2017-10-10T01:21:16.533Z,100190.00
2017-10-10T01:22:22.457Z,100193.68
2017-10-10T01:23:27.880Z,100190.90
2017-10-10T01:24:34.065Z,100186.37
2017-10-10T01:25:40.029Z,100186.94
2017-10-10T01:26:45.800Z,100179.10
2017-10-10T01:27:50.914Z,100181.98
2017-10-10T01:28:56.437Z,100181.03
2017-10-10T01:30:01.872Z,100185.25
2017-10-10T01:31:07.705Z,100178.53
2017-10-10T01:32:13.120Z,100182.47
2017-10-10T01:33:19.706Z,100181.23
2017-10-10T01:34:24.942Z,100181.38
2017-10-10T01:35:30.389Z,100179.91
2017-10-10T01:36:35.467Z,100180.14
2017-10-10T01:37:41.651Z,100183.17
2017-10-10T01:38:47.453Z,100180.25
2017-10-10T01:39:52.893Z,100181.91
2017-10-10T01:40:59.089Z,100173.11
2017-10-10T01:42:04.880Z,100179.68
2017-10-10T01:43:10.765Z,100180.38
2017-10-10T01:44:16.248Z,100175.95
2017-10-10T01:45:21.682Z,100176.00
2017-10-10T01:46:28.237Z,100176.24
2017-10-10T01:47:34.019Z,100172.84
2017-10-10T01:48:39.790Z,100175.48
2017-10-10T01:49:45.403Z,100172.98
2017-10-10T01:50:51.169Z,100174.17
2017-10-10T01:51:56.972Z,100171.47
2017-10-10T01:53:03.508Z,100171.53
2017-10-10T01:54:10.036Z,100169.45
2017-10-10T01:55:15.840Z,100173.75
2017-10-10T01:56:22.368Z,100175.68
2017-10-10T01:57:28.205Z,100170.77
2017-10-10T01:58:33.972Z,100173.97
2017-10-10T01:59:40.166Z,100164.73
2017-10-10T02:00:45.615Z,100173.27
2017-10-10T02:01:51.040Z,100170.91
2017-10-10T02:02:56.818Z,100167.56
2017-10-10T02:04:02.586Z,100164.54
2017-10-10T02:05:09.115Z,100165.53
2017-10-10T02:06:14.901Z,100162.80
2017-10-10T02:07:20.665Z,100159.78
2017-10-10T02:08:26.438Z,100158.08
2017-10-10T02:09:31.996Z,100160.20
2017-10-10T02:10:38.527Z,100163.17
2017-10-10T02:11:44.417Z,100160.11
2017-10-10T02:12:50.192Z,100157.33
2017-10-10T02:13:55.765Z,100162.48
2017-10-10T02:15:01.325Z,100157.56
2017-10-10T02:16:07.862Z,100160.77
2017-10-10T02:17:13.813Z,100154.35
2017-10-10T02:18:19.686Z,100156.09
2017-10-10T02:19:25.456Z,100157.90
2017-10-10T02:20:31.222Z,100159.59
2017-10-10T02:21:37.000Z,100157.90
2017-10-10T02:22:43.565Z,100162.65
2017-10-10T02:23:50.100Z,100161.11
2017-10-10T02:24:55.863Z,100160.67
2017-10-10T02:26:02.449Z,100157.41
2017-10-10T02:27:08.204Z,100156.72
2017-10-10T02:28:14.001Z,100161.53
2017-10-10T02:29:20.526Z,100153.84
2017-10-10T02:30:26.289Z,100154.36
2017-10-10T02:31:31.893Z,100152.70
2017-10-10T02:32:37.475Z,100150.49
2017-10-10T02:33:43.848Z,100154.64
2017-10-10T02:34:49.621Z,100155.35
2017-10-10T02:35:55.381Z,100157.23
2017-10-10T02:37:01.300Z,100150.06
2017-10-10T02:38:06.886Z,100151.38
2017-10-10T02:39:13.071Z,100156.10
2017-10-10T02:40:18.655Z,100154.02
2017-10-10T02:41:24.234Z,100153.17
2017-10-10T02:42:30.561Z,100152.99
2017-10-10T02:43:37.093Z,100153.27
2017-10-10T02:44:42.886Z,100161.91
2017-10-10T02:45:49.241Z,100154.06
2017-10-10T02:46:55.772Z,100157.80
2017-10-10T02:48:01.561Z,100154.08
2017-10-10T02:49:06.765Z,100152.52
2017-10-10T02:50:12.650Z,100156.77
2017-10-10T02:51:18.070Z,100153.94
2017-10-10T02:52:23.861Z,100153.32
2017-10-10T02:53:29.607Z,100149.63
2017-10-10T02:54:35.386Z,100154.50
2017-10-10T02:55:41.943Z,100151.30
2017-10-10T02:56:47.716Z,100151.30
2017-10-10T02:57:53.477Z,100152.23
2017-10-10T02:58:59.029Z,100151.66
2017-10-10T03:00:04.454Z,100150.25
2017-10-10T03:01:10.240Z,100157.00
2017-10-10T03:02:16.040Z,100154.11
2017-10-10T03:03:21.807Z,100150.77
2017-10-10T03:04:28.340Z,100150.48
2017-10-10T03:05:34.118Z,100148.13
2017-10-10T03:06:40.176Z,100158.74
2017-10-10T03:07:45.941Z,100153.04
2017-10-10T03:08:51.713Z,100158.83
2017-10-10T03:09:57.479Z,100154.11
2017-10-10T03:11:03.253Z,100153.98
2017-10-10T03:12:08.841Z,100155.91
2017-10-10T03:13:16.130Z,100154.59
2017-10-10T03:14:21.705Z,100152.57
2017-10-10T03:15:27.468Z,100146.62
2017-10-10T03:16:33.227Z,100150.69
2017-10-10T03:17:39.013Z,100151.52
2017-10-10T03:18:45.338Z,100147.70
2017-10-10T03:19:52.605Z,100145.83
2017-10-10T03:20:59.164Z,100147.56
2017-10-10T03:22:04.941Z,100145.81
2017-10-10T03:23:11.501Z,100149.31
2017-10-10T03:24:18.033Z,100150.34
2017-10-10T03:25:23.804Z,100146.01
2017-10-10T03:26:30.385Z,100151.63
2017-10-10T03:27:36.019Z,100148.93
2017-10-10T03:28:41.809Z,100147.95
2017-10-10T03:29:47.592Z,100146.19
2017-10-10T03:30:54.122Z,100144.31
2017-10-10T03:32:00.537Z,100146.76
2017-10-10T03:33:06.302Z,100146.67
2017-10-10T03:34:12.090Z,100144.40
2017-10-10T03:35:18.431Z,100151.34
2017-10-10T03:36:24.965Z,100142.66
2017-10-10T03:37:30.621Z,100143.22
2017-10-10T03:38:37.215Z,100141.86
2017-10-10T03:39:43.558Z,100141.01
2017-10-10T03:40:50.162Z,100143.36
2017-10-10T03:41:55.975Z,100140.44
2017-10-10T03:43:01.822Z,100142.71
2017-10-10T03:44:07.666Z,100146.15
2017-10-10T03:45:13.468Z,100142.94
2017-10-10T03:46:19.252Z,100148.42
2017-10-10T03:47:25.021Z,100141.25
2017-10-10T03:48:30.784Z,100145.48
2017-10-10T03:49:36.673Z,100146.95
2017-10-10T03:50:42.457Z,100143.14
2017-10-10T03:51:48.216Z,100144.31
2017-10-10T03:52:53.984Z,100149.69
2017-10-10T03:54:00.505Z,100145.39
2017-10-10T03:55:06.277Z,100147.80
2017-10-10T03:56:12.842Z,100141.43
2017-10-10T03:57:19.379Z,100146.71
2017-10-10T03:58:25.140Z,100145.11
2017-10-10T03:59:31.669Z,100148.59
2017-10-10T04:00:37.428Z,100145.11
2017-10-10T04:01:43.249Z,100152.19
2017-10-10T04:02:49.044Z,100148.13
2017-10-10T04:03:55.575Z,100144.12
2017-10-10T04:05:01.332Z,100146.29
2017-10-10T04:06:07.838Z,100146.91
2017-10-10T04:07:13.673Z,100144.21
2017-10-10T04:08:19.256Z,100144.64
2017-10-10T04:09:24.829Z,100142.05
2017-10-10T04:10:30.593Z,100146.00
2017-10-10T04:11:36.170Z,100144.88
2017-10-10T04:12:41.970Z,100146.57
2017-10-10T04:13:47.872Z,100148.97
2017-10-10T04:14:54.418Z,100149.98
2017-10-10T04:16:01.733Z,100150.95
2017-10-10T04:17:07.753Z,100147.19
2017-10-10T04:18:14.140Z,100138.08
2017-10-10T04:19:19.910Z,100142.94
2017-10-10T04:20:25.673Z,100148.22
2017-10-10T04:21:32.204Z,100146.48
2017-10-10T04:22:37.978Z,100144.27
2017-10-10T04:23:45.280Z,100142.61
2017-10-10T04:24:51.644Z,100139.21
2017-10-10T04:25:57.413Z,100139.07
2017-10-10T04:27:03.184Z,100138.87
2017-10-10T04:28:08.958Z,100142.84
2017-10-10T04:29:15.509Z,100140.53
2017-10-10T04:30:21.090Z,100137.75
2017-10-10T04:31:26.864Z,100140.39
2017-10-10T04:32:32.910Z,100137.14
2017-10-10T04:33:38.699Z,100141.02
2017-10-10T04:34:45.253Z,100138.38
2017-10-10T04:35:51.129Z,100140.86
2017-10-10T04:36:56.897Z,100138.03
2017-10-10T04:38:02.469Z,100135.67
2017-10-10T04:39:09.002Z,100134.26
2017-10-10T04:40:14.801Z,100134.77
2017-10-10T04:41:20.576Z,100136.05
2017-10-10T04:42:26.368Z,100129.73
2017-10-10T04:43:32.900Z,100131.20
2017-10-10T04:44:38.663Z,100129.55
2017-10-10T04:45:45.225Z,100134.27
2017-10-10T04:46:51.753Z,100126.81
2017-10-10T04:47:57.857Z,100127.98
2017-10-10T04:49:03.628Z,100132.84
2017-10-10T04:50:09.401Z,100130.20
2017-10-10T04:51:15.287Z,100135.20
2017-10-10T04:52:21.063Z,100131.58
2017-10-10T04:53:26.835Z,100132.14
2017-10-10T04:54:33.367Z,100130.15
2017-10-10T04:55:39.142Z,100125.83
2017-10-10T04:56:45.711Z,100125.11
2017-10-10T04:57:52.048Z,100125.67
2017-10-10T04:58:58.410Z,100128.21
2017-10-10T05:00:04.181Z,100132.37
2017-10-10T05:01:09.825Z,100126.74
2017-10-10T05:02:15.608Z,100131.31
2017-10-10T05:03:22.191Z,100127.64
2017-10-10T05:04:27.948Z,100129.01
2017-10-10T05:05:33.513Z,100131.42
2017-10-10T05:06:39.277Z,100132.94
2017-10-10T05:07:45.081Z,100127.94
2017-10-10T05:08:50.854Z,100131.13
2017-10-10T05:09:56.629Z,100135.70
2017-10-10T05:11:02.396Z,100136.37
2017-10-10T05:12:08.269Z,100135.34
2017-10-10T05:13:14.071Z,100135.99
2017-10-10T05:14:20.592Z,100133.34
2017-10-10T05:15:26.384Z,100132.50
2017-10-10T05:16:32.152Z,100142.70
2017-10-10T05:17:38.057Z,100135.84
2017-10-10T05:18:44.625Z,100137.64
2017-10-10T05:19:51.263Z,100136.37
2017-10-10T05:20:57.629Z,100136.18
2017-10-10T05:22:04.749Z,100138.40
2017-10-10T05:23:10.332Z,100131.13
2017-10-10T05:24:17.629Z,100135.42
2017-10-10T05:25:24.167Z,100136.75
2017-10-10T05:26:29.957Z,100138.36
2017-10-10T05:27:35.733Z,100139.25
2017-10-10T05:28:41.504Z,100137.59
2017-10-10T05:29:47.288Z,100135.37
2017-10-10T05:30:53.053Z,100133.70
2017-10-10T05:31:58.826Z,100134.91
2017-10-10T05:33:04.405Z,100127.33
2017-10-10T05:34:10.193Z,100129.40
2017-10-10T05:35:15.638Z,100129.54
2017-10-10T05:36:22.569Z,100131.42
2017-10-10T05:37:28.334Z,100128.73
2017-10-10T05:38:34.100Z,100129.34
2017-10-10T05:39:39.693Z,100129.44
2017-10-10T05:40:45.495Z,100131.19
2017-10-10T05:41:51.541Z,100133.58
2017-10-10T05:42:57.885Z,100130.62
2017-10-10T05:44:04.423Z,100125.42
2017-10-10T05:45:10.200Z,100131.52
2017-10-10T05:46:15.834Z,100133.96
2017-10-10T05:47:22.370Z,100131.09
2017-10-10T05:48:29.452Z,100132.53
2017-10-10T05:49:35.204Z,100134.76
2017-10-10T05:50:41.828Z,100135.50
2017-10-10T05:51:47.635Z,100138.05
2017-10-10T05:52:53.455Z,100135.41
2017-10-10T05:53:59.985Z,100133.66
2017-10-10T05:55:05.771Z,100136.73
2017-10-10T05:56:11.378Z,100137.39
2017-10-10T05:57:17.976Z,100137.24
2017-10-10T05:58:23.730Z,100139.88
2017-10-10T05:59:29.497Z,100138.80
2017-10-10T06:00:34.904Z,100137.57
2017-10-10T06:01:40.674Z,100145.98
2017-10-10T06:02:46.461Z,100142.20
2017-10-10T06:03:52.044Z,100141.64
2017-10-10T06:04:57.828Z,100149.98
2017-10-10T06:06:04.417Z,100145.21
2017-10-10T06:07:10.176Z,100147.87
2017-10-10T06:08:15.972Z,100148.14
2017-10-10T06:09:22.520Z,100148.44
2017-10-10T06:10:28.109Z,100148.14
2017-10-10T06:11:33.864Z,100146.17
2017-10-10T06:12:39.633Z,100148.33
2017-10-10T06:13:46.749Z,100150.69
2017-10-10T06:14:52.527Z,100152.19
2017-10-10T06:15:58.153Z,100156.30
2017-10-10T06:17:03.921Z,100148.31
2017-10-10T06:18:09.690Z,100155.20
2017-10-10T06:19:16.241Z,100150.80
2017-10-10T06:20:22.777Z,100151.08
2017-10-10T06:21:28.557Z,100152.27
2017-10-10T06:22:35.085Z,100151.75
2017-10-10T06:23:40.649Z,100155.30
2017-10-10T06:24:47.229Z,100148.82
2017-10-10T06:25:52.810Z,100153.48
2017-10-10T06:26:58.582Z,100157.36
2017-10-10T06:28:05.108Z,100151.85
2017-10-10T06:29:10.696Z,100161.42
2017-10-10T06:30:17.257Z,100156.84
2017-10-10T06:31:23.609Z,100148.11
2017-10-10T06:32:30.149Z,100145.37
2017-10-10T06:33:35.736Z,100147.78
2017-10-10T06:34:41.520Z,100150.41
2017-10-10T06:35:47.393Z,100149.65
2017-10-10T06:36:53.930Z,100148.83
2017-10-10T06:37:59.684Z,100152.37
2017-10-10T06:39:05.344Z,100148.86
2017-10-10T06:40:11.122Z,100149.47
2017-10-10T06:41:16.905Z,100147.01
2017-10-10T06:42:23.444Z,100149.50
2017-10-10T06:43:29.248Z,100150.30
2017-10-10T06:44:35.047Z,100156.09
2017-10-10T06:45:40.805Z,100155.58
2017-10-10T06:46:46.606Z,100161.30
2017-10-10T06:47:52.390Z,100158.63
2017-10-10T06:48:58.929Z,100164.09
2017-10-10T06:50:04.705Z,100157.48
2017-10-10T06:51:10.269Z,100164.84
2017-10-10T06:52:16.056Z,100161.85
2017-10-10T06:53:22.601Z,100159.60
2017-10-10T06:54:28.157Z,100161.55
2017-10-10T06:55:34.695Z,100161.22
2017-10-10T06:56:40.457Z,100163.42
2017-10-10T06:57:47.018Z,100161.55
2017-10-10T06:58:53.549Z,100165.02
2017-10-10T06:59:59.313Z,100166.09
2017-10-10T07:01:05.846Z,100158.16
2017-10-10T07:02:11.622Z,100155.18
2017-10-10T07:03:18.173Z,100161.31
2017-10-10T07:04:24.127Z,100165.41
2017-10-10T07:05:30.664Z,100161.80
2017-10-10T07:06:37.966Z,100164.83
2017-10-10T07:07:44.538Z,100161.52
2017-10-10T07:08:51.106Z,100162.61
2017-10-10T07:09:56.875Z,100160.67
2017-10-10T07:11:02.641Z,100160.69
2017-10-10T07:12:08.417Z,100161.34
2017-10-10T07:13:14.948Z,100156.63
2017-10-10T07:14:20.768Z,100170.16
2017-10-10T07:15:26.522Z,100166.36
2017-10-10T07:16:32.296Z,100163.88
2017-10-10T07:17:38.837Z,100165.30
2017-10-10T07:18:44.625Z,100166.02
2017-10-10T07:19:50.053Z,100171.33
2017-10-10T07:20:55.824Z,100168.40
2017-10-10T07:22:01.621Z,100166.90
2017-10-10T07:23:08.166Z,100164.69
2017-10-10T07:24:13.965Z,100168.84
2017-10-10T07:25:19.412Z,100162.96
2017-10-10T07:26:25.190Z,100173.69
2017-10-10T07:27:31.713Z,100171.34
2017-10-10T07:28:37.484Z,100173.77
2017-10-10T07:29:43.110Z,100172.57
2017-10-10T07:30:48.906Z,100179.37
2017-10-10T07:31:54.679Z,100177.72
2017-10-10T07:33:00.492Z,100177.06
2017-10-10T07:34:06.258Z,100174.11
2017-10-10T07:35:12.028Z,100182.23
2017-10-10T07:36:17.816Z,100181.18
2017-10-10T07:37:23.594Z,100186.12
2017-10-10T07:38:29.369Z,100178.15
2017-10-10T07:39:35.905Z,100177.03
2017-10-10T07:40:41.685Z,100174.66
2017-10-10T07:41:48.240Z,100187.00
2017-10-10T07:42:54.024Z,100182.54
2017-10-10T07:43:59.780Z,100184.27
2017-10-10T07:45:05.552Z,100180.25
2017-10-10T07:46:11.877Z,100180.31
2017-10-10T07:47:17.691Z,100182.09
2017-10-10T07:48:23.451Z,100174.24
2017-10-10T07:49:29.490Z,100177.31
2017-10-10T07:50:36.065Z,100186.81
2017-10-10T07:51:41.851Z,100188.39
2017-10-10T07:52:48.244Z,100180.88
2017-10-10T07:53:53.817Z,100182.33
2017-10-10T07:54:59.589Z,100181.97
2017-10-10T07:56:06.117Z,100186.94
2017-10-10T07:57:11.901Z,100185.91
2017-10-10T07:58:18.457Z,100185.16
2017-10-10T07:59:25.052Z,100187.00
2017-10-10T08:00:30.871Z,100187.02
2017-10-10T08:01:37.391Z,100187.92
2017-10-10T08:02:43.152Z,100189.04
2017-10-10T08:03:49.761Z,100189.57
2017-10-10T08:04:55.521Z,100184.48
2017-10-10T08:06:01.322Z,100185.47
2017-10-10T08:07:07.090Z,100178.79
2017-10-10T08:08:12.859Z,100183.08
2017-10-10T08:09:18.654Z,100179.26
2017-10-10T08:10:24.428Z,100179.91
2017-10-10T08:11:30.205Z,100179.39
2017-10-10T08:12:36.733Z,100175.21
2017-10-10T08:13:42.330Z,100178.00
2017-10-10T08:14:47.953Z,100180.52
2017-10-10T08:15:54.481Z,100179.03
2017-10-10T08:17:00.272Z,100180.36
2017-10-10T08:18:06.033Z,100179.72
2017-10-10T08:19:11.857Z,100181.95
2017-10-10T08:20:17.834Z,100186.05
2017-10-10T08:21:23.638Z,100185.73
2017-10-10T08:22:29.463Z,100191.03
2017-10-10T08:23:35.212Z,100189.87
2017-10-10T08:24:41.749Z,100185.88
2017-10-10T08:25:47.537Z,100189.19
2017-10-10T08:26:53.307Z,100187.00
2017-10-10T08:27:59.092Z,100184.42
2017-10-10T08:29:05.624Z,100184.48
2017-10-10T08:30:11.393Z,100182.02
2017-10-10T08:31:17.940Z,100178.53
2017-10-10T08:32:24.536Z,100182.62
2017-10-10T08:33:30.297Z,100181.55
2017-10-10T08:34:36.060Z,100187.58
2017-10-10T08:35:41.637Z,100189.45
2017-10-10T08:36:48.193Z,100186.36
2017-10-10T08:37:54.750Z,100186.83
2017-10-10T08:39:01.297Z,100185.78
2017-10-10T08:40:06.881Z,100186.86
2017-10-10T08:41:12.650Z,100183.50
2017-10-10T08:42:18.251Z,100190.20
2017-10-10T08:43:23.821Z,100186.09
2017-10-10T08:44:29.583Z,100188.58
2017-10-10T08:45:35.341Z,100181.73
2017-10-10T08:46:41.864Z,100187.57
2017-10-10T08:47:47.651Z,100182.94
2017-10-10T08:48:54.186Z,100181.77
2017-10-10T08:49:59.945Z,100184.09
2017-10-10T08:51:05.741Z,100182.02
2017-10-10T08:52:11.831Z,100179.84
2017-10-10T08:53:17.634Z,100184.39
2017-10-10T08:54:23.462Z,100184.61
2017-10-10T08:55:29.293Z,100187.80
2017-10-10T08:56:35.054Z,100183.91
2017-10-10T08:57:40.824Z,100184.82
2017-10-10T08:58:46.617Z,100180.35
2017-10-10T08:59:52.377Z,100181.42
2017-10-10T09:00:58.173Z,100180.93
2017-10-10T09:02:04.974Z,100188.91
2017-10-10T09:03:10.756Z,100185.20
2017-10-10T09:04:16.564Z,100192.02
2017-10-10T09:05:23.114Z,100194.98
2017-10-10T09:06:28.874Z,100188.36
2017-10-10T09:07:34.658Z,100197.77
2017-10-10T09:08:40.417Z,100186.85
2017-10-10T09:09:47.002Z,100189.61
2017-10-10T09:10:52.769Z,100188.69
2017-10-10T09:11:58.541Z,100191.03
2017-10-10T09:13:04.312Z,100190.81
2017-10-10T09:14:10.080Z,100188.32
2017-10-10T09:15:15.861Z,100189.02
2017-10-10T09:16:21.621Z,100186.26
2017-10-10T09:17:28.181Z,100186.24
2017-10-10T09:18:34.796Z,100185.69
2017-10-10T09:19:40.589Z,100189.94
2017-10-10T09:20:47.148Z,100191.85
2017-10-10T09:21:53.729Z,100196.26
2017-10-10T09:22:59.304Z,100193.96
2017-10-10T09:24:05.071Z,100194.72
2017-10-10T09:25:10.834Z,100188.56
2017-10-10T09:26:17.389Z,100192.77
2017-10-10T09:27:23.931Z,100190.22
2017-10-10T09:28:29.696Z,100188.04
2017-10-10T09:29:36.232Z,100190.69
2017-10-10T09:30:43.504Z,100188.78
2017-10-10T09:31:49.305Z,100182.48
2017-10-10T09:32:55.071Z,100186.03
2017-10-10T09:34:00.843Z,100179.39
2017-10-10T09:35:06.680Z,100181.94
2017-10-10T09:36:12.237Z,100180.93
2017-10-10T09:37:18.829Z,100182.91
2017-10-10T09:38:24.606Z,100178.45
2017-10-10T09:39:30.420Z,100178.38
2017-10-10T09:40:36.181Z,100179.72
2017-10-10T09:41:41.960Z,100174.16
2017-10-10T09:42:48.329Z,100183.27
2017-10-10T09:43:53.909Z,100183.91
2017-10-10T09:44:59.524Z,100179.52
2017-10-10T09:46:05.315Z,100181.36
2017-10-10T09:47:11.088Z,100180.70
2017-10-10T09:48:17.657Z,100187.38
2017-10-10T09:49:23.429Z,100183.77
2017-10-10T09:50:29.200Z,100183.94
2017-10-10T09:51:35.001Z,100182.19
2017-10-10T09:52:40.764Z,100179.29
2017-10-10T09:53:46.560Z,100176.63
2017-10-10T09:54:52.328Z,100175.95
2017-10-10T09:55:58.124Z,100177.28
2017-10-10T09:57:04.721Z,100178.70
2017-10-10T09:58:10.493Z,100175.09
2017-10-10T09:59:16.292Z,100176.68
2017-10-10T10:00:22.062Z,100173.43
2017-10-10T10:01:27.824Z,100169.25
2017-10-10T10:02:33.597Z,100179.87
2017-10-10T10:03:39.930Z,100177.52
2017-10-10T10:04:46.047Z,100173.58
2017-10-10T10:05:51.814Z,100174.98
2017-10-10T10:06:57.581Z,100173.08
2017-10-10T10:08:03.368Z,100167.70
2017-10-10T10:09:09.012Z,100171.43
2017-10-10T10:10:14.593Z,100166.76
2017-10-10T10:11:20.943Z,100166.70
2017-10-10T10:12:28.234Z,100163.63
2017-10-10T10:13:33.817Z,100164.59
2017-10-10T10:14:39.626Z,100169.84
2017-10-10T10:15:46.188Z,100165.54
2017-10-10T10:16:52.805Z,100167.46
2017-10-10T10:17:58.584Z,100169.16
2017-10-10T10:19:05.121Z,100162.04
2017-10-10T10:20:10.889Z,100173.95
2017-10-10T10:21:16.690Z,100171.00
2017-10-10T10:22:22.453Z,100171.12
2017-10-10T10:23:28.244Z,100167.46
2017-10-10T10:24:34.055Z,100165.73
2017-10-10T10:25:40.593Z,100161.02
2017-10-10T10:26:47.884Z,100166.83
2017-10-10T10:27:53.654Z,100163.68
2017-10-10T10:28:59.423Z,100166.13
2017-10-10T10:30:04.984Z,100169.78
2017-10-10T10:31:10.762Z,100170.03
2017-10-10T10:32:16.868Z,100166.52
2017-10-10T10:33:22.616Z,100170.18
2017-10-10T10:34:28.389Z,100173.48
2017-10-10T10:35:35.152Z,100169.90
2017-10-10T10:36:41.737Z,100167.70
2017-10-10T10:37:47.341Z,100163.66
2017-10-10T10:38:52.943Z,100167.66
2017-10-10T10:39:58.717Z,100167.09
2017-10-10T10:41:05.992Z,100158.48
2017-10-10T10:42:11.765Z,100151.34
2017-10-10T10:43:18.443Z,100149.02
2017-10-10T10:44:24.196Z,100153.53
2017-10-10T10:45:29.949Z,100152.77
2017-10-10T10:46:35.722Z,100148.10
2017-10-10T10:47:41.480Z,100152.27
2017-10-10T10:48:48.033Z,100146.53
2017-10-10T10:49:53.819Z,100152.77
2017-10-10T10:51:00.409Z,100149.36
2017-10-10T10:52:06.157Z,100160.68
2017-10-10T10:53:11.909Z,100147.82
2017-10-10T10:54:17.742Z,100150.14
2017-10-10T10:55:23.493Z,100156.16
2017-10-10T10:56:29.242Z,100161.23
2017-10-10T10:57:35.758Z,100160.66
2017-10-10T10:58:41.302Z,100156.78
2017-10-10T10:59:47.098Z,100161.08
2017-10-10T11:00:53.615Z,100156.65
2017-10-10T11:02:00.146Z,100152.86
2017-10-10T11:03:05.901Z,100154.10
2017-10-10T11:04:11.655Z,100156.80
2017-10-10T11:05:17.510Z,100153.47
2017-10-10T11:06:23.274Z,100151.73
2017-10-10T11:07:29.016Z,100159.23
2017-10-10T11:08:34.769Z,100148.75
2017-10-10T11:09:41.305Z,100151.01
2017-10-10T11:10:47.087Z,100148.02
2017-10-10T11:11:53.610Z,100156.63
2017-10-10T11:13:00.120Z,100152.84
2017-10-10T11:14:05.869Z,100155.40
2017-10-10T11:15:11.430Z,100153.44
2017-10-10T11:16:17.202Z,100157.19
2017-10-10T11:17:22.958Z,100153.69
2017-10-10T11:18:29.489Z,100160.39
2017-10-10T11:19:35.232Z,100156.81
2017-10-10T11:20:41.011Z,100157.64
2017-10-10T11:21:47.573Z,100152.39
2017-10-10T11:22:54.100Z,100154.12
2017-10-10T11:23:59.844Z,100157.48
2017-10-10T11:25:05.612Z,100156.58
2017-10-10T11:26:11.926Z,100156.41
2017-10-10T11:27:17.695Z,100161.83
2017-10-10T11:28:24.209Z,100158.88
2017-10-10T11:29:29.969Z,100159.50
2017-10-10T11:30:35.709Z,100157.69
2017-10-10T11:31:41.460Z,100156.84
2017-10-10T11:32:47.244Z,100156.94
2017-10-10T11:33:52.814Z,100154.03
2017-10-10T11:34:58.382Z,100154.55
2017-10-10T11:36:03.945Z,100157.19
2017-10-10T11:37:09.698Z,100157.35
2017-10-10T11:38:15.503Z,100155.23
2017-10-10T11:39:21.269Z,100155.13
2017-10-10T11:40:27.033Z,100156.02
2017-10-10T11:41:32.801Z,100156.19
2017-10-10T11:42:38.565Z,100156.26
2017-10-10T11:43:44.352Z,100164.52
2017-10-10T11:44:50.100Z,100154.48
2017-10-10T11:45:55.858Z,100162.16
2017-10-10T11:47:01.607Z,100158.78
2017-10-10T11:48:07.347Z,100156.27
2017-10-10T11:49:13.142Z,100154.76
2017-10-10T11:50:19.680Z,100157.15
2017-10-10T11:51:26.193Z,100154.41
2017-10-10T11:52:31.940Z,100158.66
2017-10-10T11:53:37.544Z,100159.59
2017-10-10T11:54:44.078Z,100156.37
2017-10-10T11:55:49.861Z,100157.96
2017-10-10T11:56:55.845Z,100156.81
2017-10-10T11:58:01.604Z,100158.80
2017-10-10T11:59:08.122Z,100159.22
2017-10-10T12:00:13.956Z,100149.68
2017-10-10T12:01:19.698Z,100154.52
2017-10-10T12:02:25.440Z,100145.39
2017-10-10T12:03:31.192Z,100154.92
2017-10-10T12:04:36.950Z,100153.11
2017-10-10T12:05:42.820Z,100156.41
2017-10-10T12:06:48.584Z,100154.77
2017-10-10T12:07:55.102Z,100157.16
2017-10-10T12:09:01.100Z,100154.27
2017-10-10T12:10:06.671Z,100155.02
2017-10-10T12:11:12.883Z,100154.36
2017-10-10T12:12:19.239Z,100153.45
2017-10-10T12:13:25.810Z,100158.82
2017-10-10T12:14:31.388Z,100157.75
2017-10-10T12:15:37.144Z,100160.41
2017-10-10T12:16:43.685Z,100158.41
2017-10-10T12:17:49.455Z,100156.19
2017-10-10T12:18:56.697Z,100154.02
2017-10-10T12:20:02.472Z,100158.19
2017-10-10T12:21:08.211Z,100153.78
2017-10-10T12:22:13.988Z,100154.20
2017-10-10T12:23:19.745Z,100161.98
2017-10-10T12:24:25.537Z,100163.56
2017-10-10T12:25:32.066Z,100160.00
2017-10-10T12:26:37.840Z,100164.15
2017-10-10T12:27:44.397Z,100163.14
2017-10-10T12:28:50.928Z,100163.83
2017-10-10T12:29:56.724Z,100158.77
2017-10-10T12:31:02.515Z,100157.75
2017-10-10T12:32:08.312Z,100165.07
2017-10-10T12:33:14.092Z,100162.58